createdAt,value
2017-07-26T00:00:58.042Z,1003.97
2017-07-26T00:02:59.594Z,1003.98
2017-07-26T00:05:01.102Z,1004.00
2017-07-26T00:07:02.631Z,1003.98
2017-07-26T00:09:04.163Z,1003.98
2017-07-26T00:11:05.725Z,1003.97
2017-07-26T00:13:47.363Z,1003.99
2017-07-26T00:15:48.808Z,1003.97
2017-07-26T00:17:50.232Z,1003.99
2017-07-26T00:19:51.672Z,1004.00
2017-07-26T00:21:53.273Z,1004.02
2017-07-26T00:23:54.740Z,1004.00
2017-07-26T00:25:56.163Z,1004.03
2017-07-26T00:27:57.672Z,1004.02
2017-07-26T00:29:59.226Z,1004.01
2017-07-26T00:32:00.742Z,1004.05
2017-07-26T00:34:02.261Z,1004.05
2017-07-26T00:36:03.817Z,1004.08
2017-07-26T00:38:05.329Z,1004.09
2017-07-26T00:40:06.864Z,1004.12
2017-07-26T00:42:08.349Z,1004.09
2017-07-26T00:44:09.863Z,1004.08
2017-07-26T00:46:11.371Z,1004.12
2017-07-26T00:48:12.968Z,1004.11
2017-07-26T00:50:14.525Z,1004.09
2017-07-26T00:52:16.002Z,1004.08
2017-07-26T00:54:17.622Z,1004.13
2017-07-26T00:56:19.133Z,1004.07
2017-07-26T00:58:20.649Z,1004.06
2017-07-26T01:00:22.123Z,1004.01
2017-07-26T01:02:23.673Z,1003.96
2017-07-26T01:04:25.114Z,1003.97
2017-07-26T01:06:26.653Z,1003.97
2017-07-26T01:08:28.201Z,1003.99
2017-07-26T01:10:29.708Z,1003.98
2017-07-26T01:12:31.225Z,1004.00
2017-07-26T01:14:32.724Z,1004.01
2017-07-26T01:17:15.163Z,1004.01
2017-07-26T01:19:16.581Z,1004.00
2017-07-26T01:21:18.020Z,1003.99
2017-07-26T01:23:19.727Z,1003.99
2017-07-26T01:25:21.116Z,1004.03
2017-07-26T01:27:22.635Z,1004.05
2017-07-26T01:29:24.588Z,1004.04
2017-07-26T01:31:26.156Z,1004.06
2017-07-26T01:33:27.670Z,1004.04
2017-07-26T01:35:29.172Z,1004.07
2017-07-26T01:37:30.713Z,1004.05
2017-07-26T01:39:32.220Z,1004.03
2017-07-26T01:41:33.791Z,1004.04
2017-07-26T01:43:35.345Z,1003.98
2017-07-26T01:45:36.856Z,1003.98
2017-07-26T01:47:38.408Z,1003.96
2017-07-26T01:49:39.926Z,1003.95
2017-07-26T01:51:41.441Z,1003.95
2017-07-26T01:53:42.953Z,1004.00
2017-07-26T01:55:44.466Z,1003.97
2017-07-26T01:57:45.990Z,1003.98
2017-07-26T02:00:28.376Z,1003.97
2017-07-26T02:02:29.807Z,1003.98
2017-07-26T02:04:31.233Z,1004.00
2017-07-26T02:06:32.662Z,1004.01
2017-07-26T02:08:34.086Z,1004.01
2017-07-26T02:10:35.669Z,1003.99
2017-07-26T02:12:37.393Z,1003.99
2017-07-26T02:14:38.845Z,1003.94
2017-07-26T02:17:20.361Z,1003.93
2017-07-26T02:19:21.966Z,1003.94
2017-07-26T02:21:23.398Z,1003.95
2017-07-26T02:23:24.829Z,1003.91
2017-07-26T02:25:26.299Z,1003.98
2017-07-26T02:27:27.748Z,1003.93
2017-07-26T02:29:29.270Z,1003.92
2017-07-26T02:31:30.723Z,1003.92
2017-07-26T02:34:13.239Z,1003.92
2017-07-26T02:36:14.678Z,1003.95
2017-07-26T02:38:16.104Z,1003.97
2017-07-26T02:40:17.542Z,1003.98
2017-07-26T02:43:00.134Z,1004.01
2017-07-26T02:45:01.544Z,1004.02
2017-07-26T02:47:02.971Z,1004.01
2017-07-26T02:49:45.439Z,1003.99
2017-07-26T02:51:46.863Z,1004.01
2017-07-26T02:53:48.315Z,1003.98
2017-07-26T02:55:49.731Z,1004.01
2017-07-26T02:58:32.162Z,1003.93
2017-07-26T03:00:33.578Z,1003.95
2017-07-26T03:02:35.003Z,1003.93
2017-07-26T03:05:16.638Z,1003.93
2017-07-26T03:07:18.057Z,1003.92
2017-07-26T03:09:19.480Z,1003.90
2017-07-26T03:11:20.909Z,1003.85
2017-07-26T03:13:22.333Z,1003.87
2017-07-26T03:15:23.758Z,1003.86
2017-07-26T03:17:25.188Z,1003.84
2017-07-26T03:19:26.616Z,1003.84
2017-07-26T03:22:09.347Z,1003.84
2017-07-26T03:24:10.813Z,1003.86
2017-07-26T03:26:12.241Z,1003.85
2017-07-26T03:28:13.669Z,1003.81
2017-07-26T03:30:56.086Z,1003.80
2017-07-26T03:32:57.511Z,1003.77
2017-07-26T03:34:58.938Z,1003.76
2017-07-26T03:37:00.364Z,1003.77
2017-07-26T03:39:01.788Z,1003.78
2017-07-26T03:41:03.396Z,1003.75
2017-07-26T03:43:04.802Z,1003.75
2017-07-26T03:45:47.217Z,1003.79
2017-07-26T03:47:48.648Z,1003.80
2017-07-26T03:49:50.076Z,1003.81
2017-07-26T03:51:51.502Z,1003.85
2017-07-26T03:53:52.928Z,1003.86
2017-07-26T03:55:54.358Z,1003.84
2017-07-26T03:57:55.787Z,1003.86
2017-07-26T03:59:57.226Z,1003.84
2017-07-26T04:01:58.654Z,1003.85
2017-07-26T04:04:00.187Z,1003.87
2017-07-26T04:06:01.645Z,1003.88
2017-07-26T04:08:03.071Z,1003.92
2017-07-26T04:10:04.528Z,1003.95
2017-07-26T04:12:06.028Z,1003.94
2017-07-26T04:14:07.616Z,1003.96
2017-07-26T04:16:09.138Z,1003.96
2017-07-26T04:18:51.923Z,1003.94
2017-07-26T04:20:53.300Z,1003.91
2017-07-26T04:22:54.726Z,1003.90
2017-07-26T04:24:56.171Z,1003.93
2017-07-26T04:26:57.601Z,1004.00
2017-07-26T04:28:59.036Z,1004.03
2017-07-26T04:31:00.461Z,1004.01
2017-07-26T04:33:42.880Z,1003.97
2017-07-26T04:35:44.308Z,1003.98
2017-07-26T04:37:45.737Z,1003.95
2017-07-26T04:39:47.167Z,1004.01
2017-07-26T04:41:48.593Z,1003.97
2017-07-26T04:43:50.159Z,1003.97
2017-07-26T04:45:51.555Z,1003.93
2017-07-26T04:47:53.000Z,1003.99
2017-07-26T04:49:54.535Z,1003.93
2017-07-26T04:51:55.977Z,1003.91
2017-07-26T04:53:57.417Z,1003.98
2017-07-26T04:55:58.924Z,1003.99
2017-07-26T04:58:00.374Z,1004.01
2017-07-26T05:00:01.803Z,1004.02
2017-07-26T05:02:03.230Z,1004.00
2017-07-26T05:04:04.758Z,1003.99
2017-07-26T05:06:06.181Z,1004.06
2017-07-26T05:08:07.818Z,1004.06
2017-07-26T05:10:09.291Z,1004.06
2017-07-26T05:12:10.770Z,1004.07
2017-07-26T05:14:12.212Z,1004.08
2017-07-26T05:16:13.638Z,1004.13
2017-07-26T05:18:15.073Z,1004.13
2017-07-26T05:20:16.499Z,1004.14
2017-07-26T05:22:17.956Z,1004.12
2017-07-26T05:24:19.401Z,1004.15
2017-07-26T05:26:20.871Z,1004.19
2017-07-26T05:28:22.334Z,1004.14
2017-07-26T05:30:23.831Z,1004.17
2017-07-26T05:32:25.302Z,1004.14
2017-07-26T05:34:26.855Z,1004.11
2017-07-26T05:36:28.345Z,1004.08
2017-07-26T05:38:29.905Z,1004.11
2017-07-26T05:40:31.469Z,1004.07
2017-07-26T05:42:32.956Z,1004.06
2017-07-26T05:44:34.435Z,1004.08
2017-07-26T05:46:35.972Z,1004.07
2017-07-26T05:48:37.417Z,1004.05
2017-07-26T05:50:38.919Z,1004.08
2017-07-26T05:52:40.409Z,1004.09
2017-07-26T05:54:41.905Z,1004.09
2017-07-26T05:56:43.438Z,1004.09
2017-07-26T05:58:44.982Z,1004.15
2017-07-26T06:00:46.444Z,1004.22
2017-07-26T06:02:48.001Z,1004.21
2017-07-26T06:04:49.486Z,1004.16
2017-07-26T06:06:51.006Z,1004.13
2017-07-26T06:09:34.079Z,1004.14
2017-07-26T06:11:35.477Z,1004.09
2017-07-26T06:13:36.914Z,1004.11
2017-07-26T06:15:38.348Z,1004.12
2017-07-26T06:17:39.778Z,1004.14
2017-07-26T06:19:41.219Z,1004.15
2017-07-26T06:21:42.663Z,1004.14
2017-07-26T06:23:44.093Z,1004.17
2017-07-26T06:25:45.530Z,1004.09
2017-07-26T06:27:46.964Z,1004.14
2017-07-26T06:29:48.409Z,1004.19
2017-07-26T06:32:30.820Z,1004.24
2017-07-26T06:34:32.261Z,1004.31
2017-07-26T06:36:33.698Z,1004.26
2017-07-26T06:38:35.150Z,1004.35
2017-07-26T06:40:36.572Z,1004.35
2017-07-26T06:42:38.003Z,1004.34
2017-07-26T06:44:39.447Z,1004.42
2017-07-26T06:46:40.885Z,1004.51
2017-07-26T06:48:42.349Z,1004.38
2017-07-26T06:50:43.913Z,1004.43
2017-07-26T06:52:45.338Z,1004.46
2017-07-26T06:54:46.790Z,1004.45
2017-07-26T06:57:29.204Z,1004.42
2017-07-26T06:59:30.641Z,1004.44
2017-07-26T07:01:32.184Z,1004.47
2017-07-26T07:03:33.590Z,1004.47
2017-07-26T07:05:35.415Z,1004.48
2017-07-26T07:07:36.808Z,1004.47
2017-07-26T07:09:38.751Z,1004.44
2017-07-26T07:11:40.191Z,1004.60
2017-07-26T07:13:41.624Z,1004.53
2017-07-26T07:15:43.059Z,1004.59
2017-07-26T07:17:44.496Z,1004.67
2017-07-26T07:19:45.945Z,1004.60
2017-07-26T07:21:47.381Z,1004.58
2017-07-26T07:23:48.821Z,1004.59
2017-07-26T07:25:50.365Z,1004.60
2017-07-26T07:27:51.791Z,1004.50
2017-07-26T07:29:53.245Z,1004.58
2017-07-26T07:31:54.735Z,1004.60
2017-07-26T07:34:37.194Z,1004.62
2017-07-26T07:36:38.637Z,1004.49
2017-07-26T07:38:40.080Z,1004.49
2017-07-26T07:40:41.514Z,1004.53
2017-07-26T07:42:42.955Z,1004.54
2017-07-26T07:44:44.961Z,1004.52
2017-07-26T07:46:46.420Z,1004.62
2017-07-26T07:48:47.856Z,1004.56
2017-07-26T07:50:49.748Z,1004.62
2017-07-26T07:52:51.214Z,1004.60
2017-07-26T07:54:52.648Z,1004.61
2017-07-26T07:56:54.092Z,1004.64
2017-07-26T07:58:55.535Z,1004.63
2017-07-26T08:00:56.986Z,1004.61
2017-07-26T08:02:58.431Z,1004.54
2017-07-26T08:05:40.882Z,1004.54
2017-07-26T08:07:42.308Z,1004.58
2017-07-26T08:09:43.742Z,1004.59
2017-07-26T08:11:45.181Z,1004.57
2017-07-26T08:13:46.617Z,1004.58
2017-07-26T08:15:48.052Z,1004.52
2017-07-26T08:17:49.512Z,1004.58
2017-07-26T08:19:50.968Z,1004.52
2017-07-26T08:21:52.449Z,1004.50
2017-07-26T08:23:53.937Z,1004.43
2017-07-26T08:25:55.821Z,1004.44
2017-07-26T08:27:57.338Z,1004.38
2017-07-26T08:29:58.868Z,1004.46
2017-07-26T08:32:00.371Z,1004.42
2017-07-26T08:34:01.841Z,1004.42
2017-07-26T08:36:03.388Z,1004.41
2017-07-26T08:38:04.909Z,1004.46
2017-07-26T08:40:06.515Z,1004.43
2017-07-26T08:42:08.009Z,1004.49
2017-07-26T08:44:09.533Z,1004.48
2017-07-26T08:46:11.166Z,1004.48
2017-07-26T08:48:12.648Z,1004.55
2017-07-26T08:50:14.154Z,1004.48
2017-07-26T08:52:15.724Z,1004.48
2017-07-26T08:54:17.257Z,1004.45
2017-07-26T08:56:18.790Z,1004.43
2017-07-26T08:58:20.774Z,1004.47
2017-07-26T09:00:22.254Z,1004.47
2017-07-26T09:02:23.864Z,1004.48
2017-07-26T09:04:26.377Z,1004.52
2017-07-26T09:06:27.852Z,1004.44
2017-07-26T09:08:29.437Z,1004.48
2017-07-26T09:10:30.948Z,1004.48
2017-07-26T09:12:32.399Z,1004.51
2017-07-26T09:14:34.185Z,1004.51
2017-07-26T09:16:35.584Z,1004.53
2017-07-26T09:18:37.154Z,1004.52
2017-07-26T09:20:38.606Z,1004.52
2017-07-26T09:22:40.116Z,1004.51
2017-07-26T09:24:41.576Z,1004.47
2017-07-26T09:26:43.061Z,1004.48
2017-07-26T09:28:44.641Z,1004.50
2017-07-26T09:30:46.073Z,1004.55
2017-07-26T09:32:47.545Z,1004.49
2017-07-26T09:34:49.040Z,1004.53
2017-07-26T09:36:50.563Z,1004.50
2017-07-26T09:38:52.108Z,1004.48
2017-07-26T09:40:53.598Z,1004.52
2017-07-26T09:42:55.098Z,1004.54
2017-07-26T09:44:56.683Z,1004.66
2017-07-26T09:46:58.153Z,1004.66
2017-07-26T09:48:59.706Z,1004.62
2017-07-26T09:51:01.215Z,1004.63
2017-07-26T09:53:02.656Z,1004.68
2017-07-26T09:55:04.179Z,1004.63
2017-07-26T09:57:05.736Z,1004.68
2017-07-26T09:59:07.273Z,1004.62
2017-07-26T10:01:08.755Z,1004.66
2017-07-26T10:03:10.353Z,1004.62
2017-07-26T10:05:11.882Z,1004.60
2017-07-26T10:07:13.391Z,1004.58
2017-07-26T10:09:14.860Z,1004.60
2017-07-26T10:11:16.380Z,1004.57
2017-07-26T10:13:17.858Z,1004.63
2017-07-26T10:15:19.401Z,1004.60
2017-07-26T10:17:20.916Z,1004.59
2017-07-26T10:19:22.431Z,1004.59
2017-07-26T10:21:23.927Z,1004.61
2017-07-26T10:23:25.574Z,1004.62
2017-07-26T10:25:27.075Z,1004.62
2017-07-26T10:27:28.600Z,1004.65
2017-07-26T10:29:30.085Z,1004.64
2017-07-26T10:31:31.678Z,1004.64
2017-07-26T10:33:33.315Z,1004.61
2017-07-26T10:35:34.813Z,1004.54
2017-07-26T10:37:36.412Z,1004.62
2017-07-26T10:39:37.882Z,1004.62
2017-07-26T10:41:39.445Z,1004.62
2017-07-26T10:43:40.991Z,1004.61
2017-07-26T10:45:42.472Z,1004.60
2017-07-26T10:47:43.979Z,1004.60
2017-07-26T10:49:45.473Z,1004.66
2017-07-26T10:51:46.978Z,1004.72
2017-07-26T10:53:48.714Z,1004.71
2017-07-26T10:55:50.867Z,1004.74
2017-07-26T10:57:52.320Z,1004.74
2017-07-26T10:59:53.849Z,1004.77
2017-07-26T11:01:55.335Z,1004.76
2017-07-26T11:03:56.797Z,1004.81
2017-07-26T11:05:58.773Z,1004.75
2017-07-26T11:08:00.332Z,1004.74
2017-07-26T11:10:01.832Z,1004.67
2017-07-26T11:12:03.321Z,1004.66
2017-07-26T11:14:04.907Z,1004.66
2017-07-26T11:16:06.380Z,1004.66
2017-07-26T11:18:07.864Z,1004.69
2017-07-26T11:20:09.866Z,1004.70
2017-07-26T11:22:11.659Z,1004.68
2017-07-26T11:24:13.183Z,1004.64
2017-07-26T11:26:14.761Z,1004.66
2017-07-26T11:28:16.270Z,1004.67
2017-07-26T11:30:17.790Z,1004.58
2017-07-26T11:32:19.289Z,1004.55
2017-07-26T11:34:20.802Z,1004.53
2017-07-26T11:36:22.375Z,1004.53
2017-07-26T11:38:23.861Z,1004.52
2017-07-26T11:40:25.343Z,1004.49
2017-07-26T11:42:26.918Z,1004.47
2017-07-26T11:44:28.488Z,1004.45
2017-07-26T11:46:29.994Z,1004.43
2017-07-26T11:48:31.481Z,1004.50
2017-07-26T11:50:33.453Z,1004.50
2017-07-26T11:52:34.993Z,1004.49
2017-07-26T11:54:36.528Z,1004.44
2017-07-26T11:56:38.021Z,1004.47
2017-07-26T11:58:39.524Z,1004.44
2017-07-26T12:00:41.051Z,1004.41
2017-07-26T12:02:42.536Z,1004.36
2017-07-26T12:04:44.028Z,1004.34
2017-07-26T12:06:45.506Z,1004.36
2017-07-26T12:08:47.368Z,1004.35
2017-07-26T12:10:48.784Z,1004.35
2017-07-26T12:12:50.280Z,1004.33
2017-07-26T12:14:51.721Z,1004.32
2017-07-26T12:16:53.162Z,1004.31
2017-07-26T12:18:54.600Z,1004.29
2017-07-26T12:20:56.037Z,1004.31
2017-07-26T12:22:57.479Z,1004.33
2017-07-26T12:24:58.915Z,1004.34
2017-07-26T12:27:00.358Z,1004.38
2017-07-26T12:29:01.796Z,1004.39
2017-07-26T12:31:03.239Z,1004.33
2017-07-26T12:33:04.989Z,1004.27
2017-07-26T12:35:06.393Z,1004.23
2017-07-26T12:37:07.835Z,1004.24
2017-07-26T12:39:09.281Z,1004.21
2017-07-26T12:41:10.724Z,1004.21
2017-07-26T12:43:53.161Z,1004.23
2017-07-26T12:45:54.601Z,1004.21
2017-07-26T12:47:56.049Z,1004.21
2017-07-26T12:49:57.488Z,1004.19
2017-07-26T12:51:58.944Z,1004.19
2017-07-26T12:54:00.378Z,1004.23
2017-07-26T12:56:01.825Z,1004.22
2017-07-26T12:58:03.255Z,1004.26
2017-07-26T13:00:04.726Z,1004.25
2017-07-26T13:02:46.173Z,1004.26
2017-07-26T13:04:47.614Z,1004.22
2017-07-26T13:06:49.084Z,1004.25
2017-07-26T13:08:50.909Z,1004.23
2017-07-26T13:10:52.337Z,1004.24
2017-07-26T13:12:53.808Z,1004.22
2017-07-26T13:14:55.239Z,1004.29
2017-07-26T13:16:56.688Z,1004.26
2017-07-26T13:18:58.127Z,1004.20
2017-07-26T13:20:59.565Z,1004.18
2017-07-26T13:23:01.006Z,1004.12
2017-07-26T13:25:02.447Z,1004.10
2017-07-26T13:27:03.891Z,1004.16
2017-07-26T13:29:05.332Z,1004.12
2017-07-26T13:31:06.756Z,1004.15
2017-07-26T13:33:08.223Z,1004.14
2017-07-26T13:35:09.673Z,1004.13
2017-07-26T13:37:11.116Z,1004.12
2017-07-26T13:39:12.573Z,1004.11
2017-07-26T13:41:14.017Z,1004.10
2017-07-26T13:43:15.491Z,1004.03
2017-07-26T13:45:16.930Z,1003.98
2017-07-26T13:47:18.376Z,1003.98
2017-07-26T13:49:19.816Z,1004.01
2017-07-26T13:51:21.253Z,1004.04
2017-07-26T13:53:22.698Z,1004.02
2017-07-26T13:55:24.157Z,1004.04
2017-07-26T13:57:25.625Z,1004.03
2017-07-26T13:59:27.071Z,1004.03
2017-07-26T14:01:28.521Z,1004.03
2017-07-26T14:03:29.960Z,1004.01
2017-07-26T14:05:31.429Z,1004.06
2017-07-26T14:07:32.875Z,1004.04
2017-07-26T14:09:34.348Z,1004.03
2017-07-26T14:11:35.846Z,1003.99
2017-07-26T14:13:37.287Z,1003.96
2017-07-26T14:15:38.727Z,1004.00
2017-07-26T14:17:40.337Z,1004.04
2017-07-26T14:19:41.756Z,1004.03
2017-07-26T14:21:43.196Z,1003.97
2017-07-26T14:23:44.639Z,1003.96
2017-07-26T14:25:46.106Z,1003.95
2017-07-26T14:27:47.539Z,1003.98
2017-07-26T14:29:48.988Z,1003.98
2017-07-26T14:31:50.429Z,1003.93
2017-07-26T14:33:51.874Z,1003.93
2017-07-26T14:35:53.313Z,1003.95
2017-07-26T14:37:54.754Z,1003.92
2017-07-26T14:39:56.195Z,1003.96
2017-07-26T14:41:57.636Z,1003.96
2017-07-26T14:43:59.096Z,1003.97
2017-07-26T14:46:00.689Z,1004.02
2017-07-26T14:48:02.160Z,1003.97
2017-07-26T14:50:03.776Z,1003.95
2017-07-26T14:52:05.285Z,1003.96
2017-07-26T14:54:06.772Z,1003.96
2017-07-26T14:56:08.415Z,1003.95
2017-07-26T14:58:09.879Z,1003.98
2017-07-26T15:00:11.390Z,1003.99
2017-07-26T15:02:12.951Z,1003.97
2017-07-26T15:04:14.472Z,1004.01
2017-07-26T15:06:15.966Z,1003.96
2017-07-26T15:08:17.471Z,1003.94
2017-07-26T15:10:18.933Z,1003.91
2017-07-26T15:12:20.457Z,1003.93
2017-07-26T15:14:21.865Z,1003.87
2017-07-26T15:16:23.799Z,1003.88
2017-07-26T15:19:06.194Z,1003.85
2017-07-26T15:21:07.637Z,1003.86
2017-07-26T15:23:09.079Z,1003.82
2017-07-26T15:25:10.532Z,1003.79
2017-07-26T15:27:11.989Z,1003.79
2017-07-26T15:29:13.417Z,1003.88
2017-07-26T15:31:14.856Z,1003.83
2017-07-26T15:33:16.374Z,1003.83
2017-07-26T15:35:17.809Z,1003.79
2017-07-26T15:37:19.320Z,1003.78
2017-07-26T15:39:20.754Z,1003.82
2017-07-26T15:41:22.271Z,1003.78
2017-07-26T15:43:23.794Z,1003.77
2017-07-26T15:45:25.291Z,1003.78
2017-07-26T15:47:26.810Z,1003.75
2017-07-26T15:49:28.339Z,1003.70
2017-07-26T15:51:29.785Z,1003.70
2017-07-26T15:53:31.314Z,1003.73
2017-07-26T15:55:32.756Z,1003.70
2017-07-26T15:57:34.203Z,1003.66
2017-07-26T15:59:35.644Z,1003.67
2017-07-26T16:01:37.086Z,1003.66
2017-07-26T16:03:38.557Z,1003.68
2017-07-26T16:05:39.991Z,1003.68
2017-07-26T16:07:41.432Z,1003.68
2017-07-26T16:09:43.299Z,1003.62
2017-07-26T16:11:44.714Z,1003.55
2017-07-26T16:13:46.763Z,1003.58
2017-07-26T16:15:48.267Z,1003.56
2017-07-26T16:17:49.803Z,1003.51
2017-07-26T16:19:51.285Z,1003.57
2017-07-26T16:21:52.805Z,1003.57
2017-07-26T16:23:54.307Z,1003.60
2017-07-26T16:25:55.797Z,1003.60
2017-07-26T16:27:57.360Z,1003.61
2017-07-26T16:29:58.860Z,1003.60
2017-07-26T16:32:00.359Z,1003.58
2017-07-26T16:34:01.840Z,1003.59
2017-07-26T16:36:03.326Z,1003.52
2017-07-26T16:38:04.780Z,1003.61
2017-07-26T16:40:06.227Z,1003.62
2017-07-26T16:42:07.665Z,1003.64
2017-07-26T16:44:09.202Z,1003.60
2017-07-26T16:46:51.652Z,1003.63
2017-07-26T16:48:53.092Z,1003.61
2017-07-26T16:50:54.537Z,1003.65
2017-07-26T16:52:55.977Z,1003.59
2017-07-26T16:54:57.420Z,1003.58
2017-07-26T16:56:58.860Z,1003.60
2017-07-26T16:59:00.311Z,1003.60
2017-07-26T17:01:01.742Z,1003.63
2017-07-26T17:03:03.181Z,1003.67
2017-07-26T17:05:04.621Z,1003.62
2017-07-26T17:07:06.059Z,1003.66
2017-07-26T17:09:07.503Z,1003.64
2017-07-26T17:11:09.040Z,1003.66
2017-07-26T17:13:10.469Z,1003.62
2017-07-26T17:15:12.012Z,1003.61
2017-07-26T17:17:13.511Z,1003.55
2017-07-26T17:19:55.948Z,1003.55
2017-07-26T17:22:39.355Z,1003.55
2017-07-26T17:24:40.795Z,1003.59
2017-07-26T17:26:42.234Z,1003.58
2017-07-26T17:28:43.676Z,1003.54
2017-07-26T17:30:45.113Z,1003.60
2017-07-26T17:32:46.550Z,1003.56
2017-07-26T17:34:47.992Z,1003.57
2017-07-26T17:36:49.434Z,1003.59
2017-07-26T17:38:50.877Z,1003.56
2017-07-26T17:40:52.323Z,1003.58
2017-07-26T17:42:53.753Z,1003.57
2017-07-26T17:45:37.166Z,1003.60
2017-07-26T17:47:38.605Z,1003.62
2017-07-26T17:49:40.042Z,1003.60
2017-07-26T17:51:41.478Z,1003.59
2017-07-26T17:53:42.918Z,1003.55
2017-07-26T17:56:25.347Z,1003.59
2017-07-26T17:58:26.784Z,1003.60
2017-07-26T18:00:28.221Z,1003.56
2017-07-26T18:02:29.659Z,1003.54
2017-07-26T18:04:31.087Z,1003.59
2017-07-26T18:06:32.522Z,1003.58
2017-07-26T18:08:33.972Z,1003.54
2017-07-26T18:10:35.429Z,1003.57
2017-07-26T18:12:36.849Z,1003.58
2017-07-26T18:14:38.291Z,1003.54
2017-07-26T18:16:39.727Z,1003.53
2017-07-26T18:18:41.166Z,1003.54
2017-07-26T18:20:42.640Z,1003.53
2017-07-26T18:23:25.137Z,1003.53
2017-07-26T18:25:26.574Z,1003.53
2017-07-26T18:27:28.009Z,1003.55
2017-07-26T18:29:29.441Z,1003.47
2017-07-26T18:31:30.878Z,1003.42
2017-07-26T18:33:32.314Z,1003.40
2017-07-26T18:35:33.746Z,1003.38
2017-07-26T18:37:35.179Z,1003.42
2017-07-26T18:39:36.614Z,1003.37
2017-07-26T18:41:38.049Z,1003.45
2017-07-26T18:43:39.483Z,1003.45
2017-07-26T18:45:40.915Z,1003.43
2017-07-26T18:47:42.347Z,1003.43
2017-07-26T18:49:43.892Z,1003.41
2017-07-26T18:51:45.343Z,1003.38
2017-07-26T18:53:46.761Z,1003.38
2017-07-26T18:55:48.195Z,1003.39
2017-07-26T18:57:49.628Z,1003.43
2017-07-26T19:00:32.145Z,1003.44
2017-07-26T19:02:33.554Z,1003.46
2017-07-26T19:04:34.991Z,1003.46
2017-07-26T19:06:36.427Z,1003.49
2017-07-26T19:08:37.859Z,1003.48
2017-07-26T19:10:39.297Z,1003.49
2017-07-26T19:12:40.729Z,1003.51
2017-07-26T19:14:42.162Z,1003.50
2017-07-26T19:16:43.629Z,1003.49
2017-07-26T19:18:45.077Z,1003.46
2017-07-26T19:20:46.512Z,1003.47
2017-07-26T19:22:47.945Z,1003.48
2017-07-26T19:24:49.831Z,1003.43
2017-07-26T19:26:51.254Z,1003.45
2017-07-26T19:28:52.706Z,1003.42
2017-07-26T19:30:54.180Z,1003.41
2017-07-26T19:33:36.590Z,1003.43
2017-07-26T19:35:38.022Z,1003.49
2017-07-26T19:37:39.461Z,1003.50
2017-07-26T19:39:40.890Z,1003.46
2017-07-26T19:41:42.322Z,1003.53
2017-07-26T19:43:43.786Z,1003.48
2017-07-26T19:45:45.233Z,1003.49
2017-07-26T19:47:46.661Z,1003.45
2017-07-26T19:49:48.110Z,1003.44
2017-07-26T19:51:50.292Z,1003.50
2017-07-26T19:53:51.776Z,1003.49
2017-07-26T19:55:53.243Z,1003.46
2017-07-26T19:57:55.293Z,1003.45
2017-07-26T19:59:56.940Z,1003.45
2017-07-26T20:01:58.467Z,1003.46
2017-07-26T20:03:59.941Z,1003.45
2017-07-26T20:06:01.469Z,1003.43
2017-07-26T20:08:02.968Z,1003.39
2017-07-26T20:10:04.438Z,1003.33
2017-07-26T20:12:05.925Z,1003.31
2017-07-26T20:14:07.391Z,1003.28
2017-07-26T20:16:08.861Z,1003.31
2017-07-26T20:18:10.343Z,1003.31
2017-07-26T20:20:11.955Z,1003.30
2017-07-26T20:22:13.468Z,1003.28
2017-07-26T20:24:14.948Z,1003.25
2017-07-26T20:26:16.481Z,1003.21
2017-07-26T20:28:18.333Z,1003.27
2017-07-26T20:30:19.762Z,1003.29
2017-07-26T20:32:21.877Z,1003.29
2017-07-26T20:34:23.346Z,1003.23
2017-07-26T20:36:24.810Z,1003.26
2017-07-26T20:38:26.330Z,1003.25
2017-07-26T20:40:27.836Z,1003.22
2017-07-26T20:42:29.315Z,1003.24
2017-07-26T20:45:11.731Z,1003.20
2017-07-26T20:47:13.226Z,1003.19
2017-07-26T20:49:14.641Z,1003.17
2017-07-26T20:51:16.076Z,1003.14
2017-07-26T20:53:17.802Z,1003.15
2017-07-26T20:55:19.235Z,1003.16
2017-07-26T20:57:20.667Z,1003.14
2017-07-26T20:59:22.099Z,1003.13
2017-07-26T21:01:23.774Z,1003.12
2017-07-26T21:03:25.940Z,1003.09
2017-07-26T21:05:27.359Z,1003.07
2017-07-26T21:07:28.819Z,1003.03
2017-07-26T21:09:30.283Z,1003.06
2017-07-26T21:11:31.782Z,1003.06
2017-07-26T21:13:33.293Z,1003.08
2017-07-26T21:15:35.314Z,1003.09
2017-07-26T21:17:36.798Z,1003.11
2017-07-26T21:20:19.251Z,1003.02
2017-07-26T21:22:20.681Z,1003.04
2017-07-26T21:24:22.238Z,1003.00
2017-07-26T21:26:23.654Z,1003.00
2017-07-26T21:28:25.086Z,1003.02
2017-07-26T21:30:26.522Z,1003.02
2017-07-26T21:32:27.951Z,1003.03
2017-07-26T21:34:29.914Z,1003.04
2017-07-26T21:36:31.352Z,1003.05
2017-07-26T21:38:32.810Z,1003.05
2017-07-26T21:40:34.249Z,1003.09
2017-07-26T21:42:35.792Z,1003.05
2017-07-26T21:44:37.491Z,1002.91
2017-07-26T21:47:19.912Z,1002.83
2017-07-26T21:49:21.639Z,1002.82
2017-07-26T21:51:23.029Z,1002.79
2017-07-26T21:53:24.458Z,1002.81
2017-07-26T21:55:25.893Z,1002.84
2017-07-26T21:57:27.324Z,1002.85
2017-07-26T21:59:28.835Z,1002.85
2017-07-26T22:01:30.338Z,1002.88
2017-07-26T22:03:32.082Z,1002.81
2017-07-26T22:05:33.568Z,1002.76
2017-07-26T22:07:35.005Z,1002.73
2017-07-26T22:10:17.424Z,1002.65
2017-07-26T22:12:18.853Z,1002.64
2017-07-26T22:14:20.382Z,1002.66
2017-07-26T22:16:21.826Z,1002.66
2017-07-26T22:18:23.240Z,1002.65
2017-07-26T22:20:25.240Z,1002.64
2017-07-26T22:22:26.964Z,1002.63
2017-07-26T22:24:28.430Z,1002.65
2017-07-26T22:26:29.885Z,1002.68
2017-07-26T22:28:31.718Z,1002.62
2017-07-26T22:30:34.043Z,1002.61
2017-07-26T22:32:35.639Z,1002.58
2017-07-26T22:34:37.110Z,1002.62
2017-07-26T22:36:38.641Z,1002.65
2017-07-26T22:38:40.846Z,1002.67
2017-07-26T22:40:42.356Z,1002.69
2017-07-26T22:43:25.476Z,1002.75
2017-07-26T22:45:26.900Z,1002.75
2017-07-26T22:47:28.365Z,1002.74
2017-07-26T22:49:29.794Z,1002.72
2017-07-26T22:51:31.224Z,1002.73
2017-07-26T22:54:13.634Z,1002.69
2017-07-26T22:56:15.072Z,1002.68
2017-07-26T22:58:16.493Z,1002.71
2017-07-26T23:00:18.432Z,1002.69
2017-07-26T23:02:20.539Z,1002.67
2017-07-26T23:05:02.945Z,1002.67
2017-07-26T23:07:04.372Z,1002.66
2017-07-26T23:09:05.806Z,1002.71
2017-07-26T23:11:07.412Z,1002.66
2017-07-26T23:13:08.830Z,1002.69
2017-07-26T23:15:10.261Z,1002.70
2017-07-26T23:17:11.767Z,1002.65
2017-07-26T23:19:13.384Z,1002.64
2017-07-26T23:21:14.825Z,1002.64
2017-07-26T23:23:16.248Z,1002.61
2017-07-26T23:25:17.681Z,1002.62
2017-07-26T23:27:19.116Z,1002.58
2017-07-26T23:29:20.542Z,1002.55
2017-07-26T23:31:21.970Z,1002.60
2017-07-26T23:33:23.401Z,1002.59
2017-07-26T23:35:24.836Z,1002.55
2017-07-26T23:37:26.576Z,1002.45
2017-07-26T23:39:28.061Z,1002.47
2017-07-26T23:41:29.569Z,1002.50
2017-07-26T23:44:12.001Z,1002.50
2017-07-26T23:46:13.429Z,1002.46
2017-07-26T23:48:14.964Z,1002.50
2017-07-26T23:50:16.400Z,1002.50
2017-07-26T23:52:17.823Z,1002.57
2017-07-26T23:54:19.888Z,1002.53
2017-07-26T23:56:22.172Z,1002.52
2017-07-26T23:58:23.833Z,1002.51
